Time;durP1;ratioP1;P1;durP2;ratioP2;P2;SDS_P1;SDS_P2;PMS_P1;PMS_P2;Temp;Humidity;BMP_temperature;BMP_pressure;BME280_temperature;BME280_humidity;BME280_pressure;Samples;Min_cycle;Max_cycle;Signal;HPM_P1;HPM_P2
2021/01/19 00:01:56;;;;;;;11.85;3.67;;;;;;;4.65;100.00;101562.53;6211544;23;20119;-86
2021/01/19 00:04:21;;;;;;;13.27;4.47;;;;;;;4.76;100.00;101569.41;6214016;23;20342;-85
2021/01/19 00:06:46;;;;;;;11.30;3.42;;;;;;;4.64;100.00;101547.69;6218184;23;20004;-86
2021/01/19 00:09:11;;;;;;;14.25;3.22;;;;;;;4.55;100.00;101531.19;6216052;23;20004;-87
2021/01/19 00:11:37;;;;;;;11.93;3.38;;;;;;;4.77;100.00;101553.72;6216590;23;20015;-86
2021/01/19 00:14:02;;;;;;;13.77;3.78;;;;;;;4.68;100.00;101530.22;6191713;23;20020;-86
2021/01/19 00:16:28;;;;;;;18.52;4.72;;;;;;;4.55;100.00;101499.78;6192463;23;20012;-86
2021/01/19 00:18:53;;;;;;;13.00;3.08;;;;;;;4.65;100.00;101517.13;6191345;23;20883;-86
2021/01/19 00:21:21;;;;;;;18.95;4.05;;;;;;;4.56;100.00;101489.28;6191029;23;20102;-86
2021/01/19 00:23:46;;;;;;;9.27;2.28;;;;;;;4.61;100.00;101503.19;6191683;23;20093;-85
2021/01/19 00:26:12;;;;;;;17.08;3.35;;;;;;;4.67;100.00;101499.69;6217228;23;20422;-86
2021/01/19 00:28:37;;;;;;;11.70;2.80;;;;;;;4.64;100.00;101516.28;6188957;23;20020;-86
2021/01/19 00:31:02;;;;;;;12.40;2.83;;;;;;;4.62;100.00;101498.88;6190066;23;20000;-86
2021/01/19 00:33:28;;;;;;;13.38;3.10;;;;;;;4.53;100.00;101478.88;6190127;23;20031;-86
2021/01/19 00:35:53;;;;;;;20.27;3.88;;;;;;;4.69;100.00;101495.28;6189523;23;20025;-86
2021/01/19 00:38:21;;;;;;;13.38;2.30;;;;;;;4.56;100.00;101457.00;6216486;23;20020;-85
2021/01/19 00:40:47;;;;;;;17.20;3.58;;;;;;;4.51;100.00;101443.09;6190371;23;20024;-85
2021/01/19 00:43:12;;;;;;;8.73;2.60;;;;;;;4.73;100.00;101476.06;6190534;23;20569;-85
2021/01/19 00:45:37;;;;;;;9.63;3.38;;;;;;;4.73;100.00;101462.09;6190211;23;20004;-84
2021/01/19 00:48:03;;;;;;;10.77;2.80;;;;;;;4.76;100.00;101447.19;6190766;23;20729;-85
2021/01/19 00:50:29;;;;;;;17.50;3.47;;;;;;;4.85;100.00;101446.22;6194046;23;20040;-85
2021/01/19 00:52:54;;;;;;;21.80;4.07;;;;;;;4.74;100.00;101438.50;6193941;23;20012;-85
2021/01/19 00:55:19;;;;;;;6.75;1.95;;;;;;;4.81;100.00;101436.66;6194463;23;20435;-85
2021/01/19 00:57:48;;;;;;;15.02;3.13;;;;;;;4.82;100.00;101425.31;6193621;23;20026;-85
2021/01/19 01:00:14;;;;;;;13.68;3.17;;;;;;;4.95;100.00;101424.28;6194354;23;20040;-86
2021/01/19 01:02:39;;;;;;;7.93;2.67;;;;;;;4.98;100.00;101421.63;6219956;23;20004;-86
2021/01/19 01:05:09;;;;;;;20.40;3.67;;;;;;;4.98;100.00;101416.41;6195358;23;20014;-86
2021/01/19 01:07:36;;;;;;;15.13;2.60;;;;;;;4.93;100.00;101408.59;6195895;23;20362;-86
2021/01/19 01:10:03;;;;;;;20.23;3.67;;;;;;;4.95;100.00;101411.19;6193139;23;20061;-85
2021/01/19 01:12:29;;;;;;;9.48;2.50;;;;;;;5.02;100.00;101415.47;6192118;23;20020;-86
2021/01/19 01:14:54;;;;;;;10.52;2.72;;;;;;;4.94;100.00;101386.75;6192809;23;20534;-85
2021/01/19 01:17:19;;;;;;;11.38;2.85;;;;;;;5.01;100.00;101412.88;6218890;23;20009;-86
2021/01/19 01:19:45;;;;;;;14.20;3.30;;;;;;;4.85;100.00;101358.03;6191105;23;20004;-85
2021/01/19 01:22:10;;;;;;;17.38;2.75;;;;;;;4.88;100.00;101365.88;6191855;23;20304;-84
2021/01/19 01:24:36;;;;;;;13.10;2.80;;;;;;;4.82;100.00;101347.63;6192715;23;19996;-85
2021/01/19 01:27:01;;;;;;;13.85;3.97;;;;;;;4.90;100.00;101364.09;6216393;23;20001;-84
2021/01/19 01:29:27;;;;;;;13.75;2.45;;;;;;;4.97;100.00;101367.53;6190992;23;20004;-85
2021/01/19 01:31:52;;;;;;;10.32;3.00;;;;;;;4.92;100.00;101357.09;6190328;23;20048;-85
2021/01/19 01:34:17;;;;;;;18.02;3.22;;;;;;;4.80;100.00;101324.94;6218049;23;20654;-85
2021/01/19 01:36:43;;;;;;;14.18;3.40;;;;;;;4.84;100.00;101339.75;6192370;23;20008;-85
2021/01/19 01:39:08;;;;;;;11.10;3.85;;;;;;;4.91;100.00;101344.88;6195927;23;20437;-84
2021/01/19 01:41:33;;;;;;;11.60;2.50;;;;;;;4.96;100.00;101336.94;6198084;23;20030;-85
2021/01/19 01:44:02;;;;;;;13.63;3.05;;;;;;;4.81;100.00;101311.81;6198127;23;20004;-85
2021/01/19 01:46:29;;;;;;;16.55;4.35;;;;;;;4.61;100.00;101298.97;6198429;23;20411;-86
2021/01/19 01:48:55;;;;;;;12.95;3.17;;;;;;;4.66;100.00;101315.50;6222910;23;20022;-85
2021/01/19 01:51:21;;;;;;;12.75;3.35;;;;;;;4.59;100.00;101305.13;6193369;23;20036;-86
2021/01/19 01:53:50;;;;;;;21.00;3.63;;;;;;;4.54;100.00;101294.72;6193808;23;20047;-85
2021/01/19 01:56:16;;;;;;;24.83;4.03;;;;;;;4.54;100.00;101292.09;6193156;23;20004;-84
2021/01/19 01:58:42;;;;;;;11.02;4.03;;;;;;;4.61;100.00;101295.50;6218477;23;20024;-86
2021/01/19 02:01:07;;;;;;;9.98;3.50;;;;;;;4.50;100.00;101277.31;6190735;23;20020;-86
2021/01/19 02:03:33;;;;;;;18.50;4.13;;;;;;;4.51;100.00;101280.78;6190845;23;20009;-85
2021/01/19 02:05:58;;;;;;;11.85;4.05;;;;;;;4.48;100.00;101286.94;6189351;23;20415;-85
2021/01/19 02:08:54;;;;;;;13.52;4.28;;;;;;;4.45;100.00;101280.88;6189559;23;20417;-84
2021/01/19 02:11:22;;;;;;;14.57;4.43;;;;;;;4.39;100.00;101271.34;6190309;23;20335;-85
2021/01/19 02:14:17;;;;;;;12.95;3.63;;;;;;;4.37;100.00;101266.16;6189962;23;20107;-85
2021/01/19 02:16:47;;;;;;;14.30;3.90;;;;;;;4.31;100.00;101255.72;6189486;23;20046;-84
2021/01/19 02:19:18;;;;;;;14.45;4.15;;;;;;;4.22;100.00;101242.78;6189811;23;20276;-84
2021/01/19 02:22:06;;;;;;;18.15;3.75;;;;;;;4.26;100.00;101234.00;6216414;23;20008;-85
2021/01/19 02:25:09;;;;;;;19.40;4.28;;;;;;;4.22;100.00;101231.41;6190047;23;20012;-83
2021/01/19 02:28:01;;;;;;;11.18;5.05;;;;;;;4.10;100.00;101220.22;6215172;23;20080;-84
2021/01/19 02:30:51;;;;;;;14.15;5.47;;;;;;;4.06;100.00;101208.06;6191575;23;20004;-84
2021/01/19 02:33:34;;;;;;;14.82;4.95;;;;;;;4.08;100.00;101193.22;6194287;23;20008;-85
2021/01/19 02:36:19;;;;;;;14.52;5.60;;;;;;;4.02;100.00;101198.53;6194816;23;20023;-83
2021/01/19 02:38:56;;;;;;;13.25;4.97;;;;;;;4.01;100.00;101190.69;6219805;23;20612;-85
2021/01/19 02:41:23;;;;;;;24.73;4.60;;;;;;;4.08;100.00;101184.53;6217758;23;20004;-85
2021/01/19 02:43:56;;;;;;;15.55;5.82;;;;;;;3.96;100.00;101161.13;6190672;23;20004;-85
2021/01/19 02:46:25;;;;;;;14.85;6.63;;;;;;;3.92;100.00;101149.84;6191732;23;20074;-83
2021/01/19 02:48:52;;;;;;;10.05;4.38;;;;;;;3.85;100.00;101135.97;6218655;23;20004;-87
2021/01/19 02:51:18;;;;;;;18.75;6.90;;;;;;;3.97;100.00;101134.09;6191560;23;20009;-84
2021/01/19 02:53:43;;;;;;;22.88;8.05;;;;;;;3.84;100.00;101126.38;6189086;23;20008;-86
2021/01/19 02:56:17;;;;;;;18.85;9.27;;;;;;;3.95;100.00;101135.84;6187996;23;20027;-86
2021/01/19 02:58:52;;;;;;;12.25;5.90;;;;;;;3.86;100.00;101124.59;6190381;23;20001;-85
2021/01/19 03:01:29;;;;;;;13.43;5.72;;;;;;;3.94;100.00;101123.66;6191477;23;20000;-86
2021/01/19 03:03:55;;;;;;;16.30;7.07;;;;;;;3.82;100.00;101107.25;6218109;23;20032;-84
2021/01/19 03:06:31;;;;;;;16.92;5.93;;;;;;;3.82;100.00;101099.41;6191054;23;20001;-86
2021/01/19 03:08:58;;;;;;;16.55;6.80;;;;;;;3.85;100.00;101094.13;6216960;23;20331;-86
2021/01/19 03:11:25;;;;;;;21.55;8.07;;;;;;;3.89;100.00;101111.50;6216926;23;20019;-86
2021/01/19 03:13:51;;;;;;;17.15;7.07;;;;;;;3.90;100.00;101089.69;6195469;23;20023;-86
2021/01/19 03:16:19;;;;;;;17.00;8.05;;;;;;;3.81;100.00;101084.59;6220887;23;20327;-86
2021/01/19 03:18:46;;;;;;;17.17;8.10;;;;;;;3.93;100.00;101072.25;6222261;23;20062;-86
2021/01/19 03:21:12;;;;;;;13.77;7.65;;;;;;;3.96;100.00;101080.03;6195678;23;20015;-86
2021/01/19 03:23:38;;;;;;;20.10;8.63;;;;;;;3.97;100.00;101058.25;6197240;23;20095;-86
2021/01/19 03:26:05;;;;;;;11.70;6.88;;;;;;;3.99;100.00;101053.84;6196888;23;20004;-85
2021/01/19 03:28:31;;;;;;;15.57;7.85;;;;;;;4.06;100.00;101045.88;6192684;23;20005;-84
2021/01/19 03:30:57;;;;;;;16.80;8.18;;;;;;;4.09;100.00;101058.94;6195361;23;20055;-84
2021/01/19 03:33:23;;;;;;;13.35;7.90;;;;;;;4.00;100.00;101035.53;6197159;23;20036;-84
2021/01/19 03:35:49;;;;;;;20.20;9.70;;;;;;;4.01;100.00;101034.63;6196760;23;20036;-85
2021/01/19 03:38:14;;;;;;;18.52;8.70;;;;;;;3.92;100.00;101016.47;6196266;23;20428;-84
2021/01/19 03:40:40;;;;;;;21.27;7.65;;;;;;;4.00;100.00;101014.59;6190687;23;20004;-86
2021/01/19 03:43:06;;;;;;;18.33;10.95;;;;;;;4.02;100.00;101022.44;6192122;23;20005;-87
2021/01/19 03:45:31;;;;;;;14.85;9.27;;;;;;;4.00;100.00;101005.88;6198519;23;19992;-87
2021/01/19 03:47:57;;;;;;;15.70;8.15;;;;;;;4.06;100.00;101011.88;6228302;23;20056;-89
2021/01/19 03:50:23;;;;;;;8.95;7.07;;;;;;;4.07;100.00;101018.00;6191027;23;20063;-88
2021/01/19 03:52:49;;;;;;;15.88;10.75;;;;;;;4.00;100.00;101005.88;6218665;23;20051;-85
2021/01/19 03:55:14;;;;;;;12.93;8.80;;;;;;;4.06;100.00;101004.03;6190861;23;20007;-86
2021/01/19 03:57:39;;;;;;;15.23;9.13;;;;;;;4.05;100.00;100991.84;6216147;23;20448;-86
2021/01/19 04:00:07;;;;;;;15.25;9.73;;;;;;;4.11;100.00;101002.22;6191224;23;19997;-85
2021/01/19 04:02:32;;;;;;;14.13;9.65;;;;;;;4.13;100.00;100987.38;6217947;23;20441;-86
2021/01/19 04:04:57;;;;;;;16.23;9.38;;;;;;;4.08;100.00;100990.97;6218496;23;20008;-84
2021/01/19 04:07:25;;;;;;;16.63;10.40;;;;;;;4.08;100.00;100975.25;6187850;23;20617;-84
2021/01/19 04:09:50;;;;;;;17.60;10.90;;;;;;;4.04;100.00;100974.44;6191858;23;20126;-84
2021/01/19 04:12:16;;;;;;;21.88;10.38;;;;;;;4.02;100.00;100960.53;6190811;23;20021;-84
2021/01/19 04:14:41;;;;;;;14.80;9.88;;;;;;;4.16;100.00;100978.59;6191896;23;20684;-84
2021/01/19 04:17:06;;;;;;;20.17;12.23;;;;;;;4.15;100.00;100969.91;6193263;23;20423;-84
2021/01/19 04:19:31;;;;;;;18.27;13.13;;;;;;;4.15;100.00;100942.88;6191684;23;20092;-84
2021/01/19 04:21:57;;;;;;;23.45;11.52;;;;;;;4.05;100.00;100913.38;6191718;23;20005;-84
2021/01/19 04:24:22;;;;;;;24.48;10.90;;;;;;;4.22;100.00;100935.78;6191498;23;20779;-84
2021/01/19 04:26:47;;;;;;;16.70;9.90;;;;;;;4.15;100.00;100914.97;6191326;23;20000;-85
2021/01/19 04:29:12;;;;;;;21.15;11.50;;;;;;;4.10;100.00;100893.25;6189960;23;20012;-83
2021/01/19 04:31:38;;;;;;;17.92;11.00;;;;;;;4.07;100.00;100895.94;6194885;23;20004;-83
2021/01/19 04:34:03;;;;;;;16.05;10.15;;;;;;;4.20;100.00;100895.72;6221992;23;20035;-83
2021/01/19 04:36:28;;;;;;;15.65;9.90;;;;;;;4.22;100.00;100902.66;6221210;23;20074;-83
2021/01/19 04:38:54;;;;;;;12.70;8.85;;;;;;;4.28;100.00;100901.69;6194613;23;20062;-84
2021/01/19 04:41:20;;;;;;;17.33;10.15;;;;;;;4.11;100.00;100887.13;6190389;23;20015;-84
2021/01/19 04:43:46;;;;;;;15.23;10.15;;;;;;;4.24;100.00;100897.38;6191222;23;20043;-84
2021/01/19 04:46:18;;;;;;;13.75;10.40;;;;;;;4.24;100.00;100892.16;6217603;23;19996;-85
2021/01/19 04:48:44;;;;;;;9.43;6.82;;;;;;;4.31;100.00;100905.09;6192015;23;20074;-85
2021/01/19 04:51:17;;;;;;;22.50;12.40;;;;;;;4.23;100.00;100882.59;6190894;23;20005;-85
2021/01/19 04:53:48;;;;;;;17.60;10.82;;;;;;;4.31;100.00;100886.78;6222297;23;20036;-85
2021/01/19 04:56:19;;;;;;;16.17;11.18;;;;;;;4.14;100.00;100855.69;6194813;23;20005;-85
2021/01/19 04:58:49;;;;;;;19.00;11.30;;;;;;;4.31;100.00;100868.47;6195387;23;20388;-86
2021/01/19 05:01:37;;;;;;;19.45;10.65;;;;;;;4.36;100.00;100856.16;6188656;23;20092;-84
2021/01/19 05:04:40;;;;;;;17.05;10.63;;;;;;;4.41;100.00;100848.22;6218065;23;20007;-83
2021/01/19 05:07:32;;;;;;;16.02;9.90;;;;;;;4.49;100.00;100840.25;6192852;23;20009;-84
2021/01/19 05:10:13;;;;;;;15.85;9.05;;;;;;;4.53;100.00;100832.28;6191677;23;20001;-85
2021/01/19 05:12:39;;;;;;;16.35;9.77;;;;;;;4.54;100.00;100826.16;6216616;23;20043;-85
2021/01/19 05:15:12;;;;;;;12.15;7.38;;;;;;;4.55;100.00;100801.72;6214001;23;20385;-85
2021/01/19 05:17:41;;;;;;;15.88;8.20;;;;;;;4.59;100.00;100803.38;6218093;23;20009;-85
2021/01/19 05:20:09;;;;;;;17.05;7.40;;;;;;;4.58;100.00;100790.31;6217533;23;20342;-84
2021/01/19 05:22:40;;;;;;;17.00;9.00;;;;;;;4.66;100.00;100791.88;6219105;23;20064;-85
2021/01/19 05:25:07;;;;;;;16.75;8.70;;;;;;;4.67;100.00;100791.00;6217860;23;20004;-85
2021/01/19 05:27:32;;;;;;;14.38;7.18;;;;;;;4.62;100.00;100763.19;6216354;23;20339;-84
2021/01/19 05:30:04;;;;;;;12.65;8.40;;;;;;;4.75;100.00;100758.53;6217854;23;20126;-83
2021/01/19 05:32:43;;;;;;;14.95;8.13;;;;;;;4.73;100.00;100747.25;6219640;23;20012;-85
2021/01/19 05:35:21;;;;;;;19.88;8.23;;;;;;;4.73;100.00;100723.69;6217466;23;20031;-85
2021/01/19 05:37:59;;;;;;;14.15;6.70;;;;;;;4.81;100.00;100722.59;6217848;23;20354;-83
2021/01/19 05:40:26;;;;;;;10.68;5.97;;;;;;;4.85;100.00;100723.41;6213875;23;20083;-84
2021/01/19 05:42:54;;;;;;;13.35;6.55;;;;;;;4.80;100.00;100692.09;6214633;23;20032;-84
2021/01/19 05:45:20;;;;;;;11.13;6.00;;;;;;;4.97;100.00;100709.16;6217253;23;20108;-84
2021/01/19 05:47:46;;;;;;;12.82;5.60;;;;;;;4.99;100.00;100683.81;6214953;23;20005;-83
2021/01/19 05:50:13;;;;;;;6.28;4.68;;;;;;;5.00;100.00;100678.53;6217370;23;20027;-84
2021/01/19 05:52:38;;;;;;;10.15;4.90;;;;;;;5.02;100.00;100668.88;6217747;23;20011;-83
2021/01/19 05:55:05;;;;;;;12.60;5.32;;;;;;;5.04;100.00;100668.84;6217895;23;20004;-87
2021/01/19 05:57:33;;;;;;;13.70;4.80;;;;;;;4.97;100.00;100636.72;6217927;23;20318;-86
2021/01/19 06:00:02;;;;;;;8.77;4.85;;;;;;;5.12;100.00;100652.03;6215393;23;20058;-85
2021/01/19 06:02:41;;;;;;;5.05;2.80;;;;;;;5.13;100.00;100632.78;6214632;23;20001;-84
2021/01/19 06:05:11;;;;;;;8.05;3.70;;;;;;;5.12;100.00;100624.94;6215013;23;20660;-84
2021/01/19 06:07:44;;;;;;;7.88;3.28;;;;;;;5.17;100.00;100654.50;6216781;23;20007;-82
2021/01/19 06:10:12;;;;;;;5.13;3.38;;;;;;;5.20;100.00;100597.66;6218027;23;20012;-84
2021/01/19 06:12:37;;;;;;;6.32;3.05;;;;;;;5.14;100.00;100591.75;6218376;23;20016;-84
2021/01/19 06:15:04;;;;;;;6.13;3.10;;;;;;;5.23;100.00;100588.88;6214703;23;20473;-84
2021/01/19 06:17:29;;;;;;;7.70;3.22;;;;;;;5.22;100.00;100579.31;6214758;23;20009;-84
2021/01/19 06:19:58;;;;;;;9.85;3.03;;;;;;;5.24;100.00;100592.34;6213642;23;20012;-82
2021/01/19 06:22:25;;;;;;;6.00;3.38;;;;;;;5.18;100.00;100547.06;6217721;23;20070;-85
2021/01/19 06:24:55;;;;;;;12.07;3.40;;;;;;;5.18;100.00;100588.13;6220131;23;20055;-83
2021/01/19 06:27:20;;;;;;;7.40;3.30;;;;;;;5.27;100.00;100547.72;6215710;23;20016;-84
2021/01/19 06:29:58;;;;;;;6.35;2.45;;;;;;;5.26;100.00;100546.84;6213689;23;20059;-84
2021/01/19 06:32:23;;;;;;;5.43;2.28;;;;;;;5.26;100.00;100544.22;6214003;23;20016;-82
2021/01/19 06:34:49;;;;;;;6.10;3.10;;;;;;;5.21;100.00;100527.78;6213770;23;20046;-83
2021/01/19 06:37:28;;;;;;;12.23;3.30;;;;;;;5.24;100.00;100574.88;6213939;23;20005;-82
2021/01/19 06:39:56;;;;;;;7.20;2.35;;;;;;;5.23;100.00;100556.59;6214829;23;20015;-83
2021/01/19 06:42:27;;;;;;;7.53;3.33;;;;;;;5.18;100.00;100543.59;6215060;23;20001;-83
2021/01/19 06:45:10;;;;;;;8.15;3.33;;;;;;;5.15;100.00;100530.56;6215135;23;20421;-82
2021/01/19 06:47:49;;;;;;;8.02;3.65;;;;;;;5.24;100.00;100526.84;6217394;23;20011;-84
2021/01/19 06:50:18;;;;;;;4.45;2.47;;;;;;;5.31;100.00;100531.00;6217240;23;20008;-83
2021/01/19 06:53:00;;;;;;;13.07;3.60;;;;;;;5.26;100.00;100519.78;6209263;23;20008;-82
2021/01/19 06:55:38;;;;;;;12.57;2.13;;;;;;;5.39;100.00;100508.06;6216728;23;20338;-86
2021/01/19 06:58:15;;;;;;;3.70;2.47;;;;;;;5.41;100.00;100524.59;6213139;23;20001;-83
2021/01/19 07:00:42;;;;;;;9.32;2.60;;;;;;;5.44;100.00;100520.16;6215885;23;20425;-83
2021/01/19 07:03:27;;;;;;;7.60;2.80;;;;;;;5.43;100.00;100504.47;6216386;23;20096;-83
2021/01/19 07:06:00;;;;;;;4.90;2.95;;;;;;;5.45;100.00;100486.94;6217950;23;20000;-83
2021/01/19 07:09:03;;;;;;;5.60;2.33;;;;;;;5.53;100.00;100512.94;6216203;23;20088;-83
2021/01/19 07:11:37;;;;;;;4.70;1.70;;;;;;;5.54;100.00;100510.25;6218143;23;20514;-84
2021/01/19 07:14:13;;;;;;;4.85;1.83;;;;;;;5.57;100.00;100480.47;6186366;23;20056;-83
2021/01/19 07:16:55;;;;;;;3.85;1.88;;;;;;;5.54;100.00;100483.19;6180701;23;20005;-84
2021/01/19 07:23:29;;;;;;;11.18;3.13;;;;;;;5.55;100.00;100475.28;6185960;23;20108;-81
2021/01/19 07:29:28;;;;;;;6.13;2.60;;;;;;;5.52;100.00;100464.84;6184920;23;20063;-83
2021/01/19 07:32:44;;;;;;;3.55;2.25;;;;;;;5.49;100.00;100443.16;6158024;23;20088;-83
2021/01/19 07:35:34;;;;;;;10.95;2.55;;;;;;;5.55;100.00;100453.44;6122222;23;20010;-84
2021/01/19 07:50:23;;;;;;;9.10;2.23;;;;;;;5.80;100.00;100464.91;6228113;22;20020;-81
2021/01/19 07:59:35;;;;;;;4.22;2.15;;;;;;;5.88;100.00;100452.41;6245885;22;20699;-84
2021/01/19 08:02:42;;;;;;;;;;;;;;;5.98;100.00;100450.41;6223702;23;20007;-85
2021/01/19 08:20:07;;;;;;;5.03;2.27;;;;;;;6.14;100.00;100456.00;6246537;22;20276;-82
2021/01/19 08:23:29;;;;;;;5.20;2.60;;;;;;;6.19;100.00;100446.22;6251964;23;19996;-84
2021/01/19 08:28:55;;;;;;;7.05;2.33;;;;;;;6.24;100.00;100454.81;6235396;22;20020;-82
2021/01/19 08:32:18;;;;;;;8.05;2.30;;;;;;;6.17;100.00;100446.25;6248335;23;20423;-83
2021/01/19 08:34:51;;;;;;;8.57;2.65;;;;;;;6.27;100.00;100445.97;6081261;23;20561;-82
2021/01/19 08:37:18;;;;;;;4.18;3.30;;;;;;;6.30;100.00;100464.25;6154870;23;20049;-83
2021/01/19 08:40:35;;;;;;;7.60;2.33;;;;;;;6.35;100.00;100468.44;6132695;23;20024;-83
2021/01/19 08:43:04;;;;;;;6.27;2.27;;;;;;;6.35;100.00;100452.69;6149586;23;20015;-80
2021/01/19 08:45:57;;;;;;;5.20;2.22;;;;;;;6.35;100.00;100463.19;6154531;23;20044;-82
2021/01/19 08:49:15;;;;;;;5.75;2.38;;;;;;;6.28;100.00;100458.19;6152816;23;20413;-82
2021/01/19 08:52:16;;;;;;;6.25;3.40;;;;;;;6.39;100.00;100438.56;6150711;23;20005;-83
2021/01/19 08:55:02;;;;;;;2.35;1.85;;;;;;;6.38;100.00;100464.88;6036850;23;20110;-78
2021/01/19 09:00:48;;;;;;;8.90;2.72;;;;;;;6.38;100.00;100476.22;6036157;23;20034;-82
2021/01/19 09:03:21;;;;;;;5.55;2.88;;;;;;;6.41;100.00;100470.00;6037201;23;20034;-83
2021/01/19 09:05:53;;;;;;;5.47;2.63;;;;;;;6.31;100.00;100472.06;6012051;23;20407;-82
2021/01/19 09:19:30;;;;;;;5.33;2.33;;;;;;;6.50;100.00;100448.69;6220128;22;20043;-82
2021/01/19 09:21:55;;;;;;;4.50;3.00;;;;;;;6.58;100.00;100465.06;6245821;23;20232;-83
2021/01/19 09:24:21;;;;;;;9.20;2.75;;;;;;;6.57;100.00;100459.81;6247180;23;20022;-82
2021/01/19 09:26:58;;;;;;;7.03;3.20;;;;;;;6.55;100.00;100486.16;6248051;23;19996;-82
2021/01/19 09:29:31;;;;;;;4.97;2.65;;;;;;;6.51;100.00;100496.81;6243763;23;20004;-85
2021/01/19 09:32:48;;;;;;;3.67;3.05;;;;;;;6.51;100.00;100496.81;6219583;23;20602;-85
2021/01/19 09:35:19;;;;;;;4.53;3.00;;;;;;;6.51;100.00;100497.66;6220824;23;20011;-83
2021/01/19 09:37:44;;;;;;;7.68;5.13;;;;;;;6.53;100.00;100485.34;6224240;23;20657;-82
2021/01/19 09:40:53;;;;;;;6.07;4.30;;;;;;;6.57;100.00;100491.34;6250411;23;20003;-86
2021/01/19 09:46:59;;;;;;;6.18;3.53;;;;;;;6.63;100.00;100471.00;6249227;22;20035;-86
2021/01/19 09:50:24;;;;;;;4.53;3.42;;;;;;;6.68;100.00;100455.09;6248606;23;20008;-85
2021/01/19 09:53:30;;;;;;;6.47;3.65;;;;;;;6.66;100.00;100489.25;6156197;23;20456;-85
2021/01/19 09:56:17;;;;;;;7.25;3.72;;;;;;;6.77;100.00;100495.91;6158123;23;20771;-85
2021/01/19 09:58:43;;;;;;;5.88;4.18;;;;;;;6.84;100.00;100465.91;6136768;23;20041;-84
2021/01/19 10:01:26;;;;;;;5.38;3.10;;;;;;;6.91;100.00;100463.00;6157526;23;20085;-85
2021/01/19 10:07:13;;;;;;;6.50;5.75;;;;;;;6.88;100.00;100485.94;6155505;23;20020;-86
2021/01/19 10:10:20;;;;;;;7.53;5.45;;;;;;;6.90;100.00;100502.47;6152758;23;20009;-85
2021/01/19 10:13:04;;;;;;;12.63;6.70;;;;;;;6.87;100.00;100506.06;6128208;23;20403;-85
2021/01/19 10:16:27;;;;;;;7.30;5.78;;;;;;;6.86;100.00;100480.69;6154907;23;20020;-84
2021/01/19 10:18:52;;;;;;;5.30;4.47;;;;;;;6.94;100.00;100489.19;6128689;23;20025;-85
2021/01/19 10:24:48;;;;;;;8.38;6.10;;;;;;;7.15;100.00;100476.19;6153960;23;20093;-85
2021/01/19 10:27:18;;;;;;;12.50;8.60;;;;;;;7.26;100.00;100502.94;6152939;23;20010;-86
2021/01/19 10:29:58;;;;;;;11.07;7.63;;;;;;;7.25;100.00;100488.94;6144506;23;20025;-86
2021/01/19 10:32:25;;;;;;;10.77;6.68;;;;;;;7.30;100.00;100503.69;6188180;23;20250;-83
2021/01/19 10:34:51;;;;;;;12.05;7.05;;;;;;;7.33;100.00;100500.94;6187395;23;20711;-84
2021/01/19 10:37:17;;;;;;;9.85;6.72;;;;;;;7.44;100.00;100504.06;6160994;23;20008;-84
2021/01/19 10:40:03;;;;;;;8.20;6.07;;;;;;;7.56;100.00;100508.84;6175221;23;20017;-84
2021/01/19 10:42:46;;;;;;;13.23;4.88;;;;;;;7.61;100.00;100499.00;6194467;23;20614;-85
2021/01/19 10:45:32;;;;;;;12.52;4.75;;;;;;;7.75;100.00;100504.63;6194381;23;20004;-84
2021/01/19 10:47:59;;;;;;;18.17;5.05;;;;;;;8.03;100.00;100483.38;6189251;23;20033;-84
2021/01/19 10:50:32;;;;;;;9.02;2.25;;;;;;;8.30;100.00;100496.34;6188486;23;20744;-84
2021/01/19 10:53:52;;;;;;;10.13;2.80;;;;;;;8.53;100.00;100529.66;6161985;23;20060;-83
2021/01/19 10:56:23;;;;;;;10.32;2.38;;;;;;;8.48;100.00;100478.94;6013157;23;20018;-83
2021/01/19 10:58:51;;;;;;;17.40;3.10;;;;;;;8.55;100.00;100519.94;6035939;23;20007;-84
2021/01/19 11:01:16;;;;;;;11.57;2.10;;;;;;;8.56;100.00;100524.28;6041823;23;20067;-83
2021/01/19 11:03:42;;;;;;;8.18;2.30;;;;;;;8.67;100.00;100516.78;6083757;23;20384;-81
2021/01/19 11:06:07;;;;;;;9.27;2.42;;;;;;;8.67;100.00;100537.00;6073898;23;20002;-82
2021/01/19 11:08:33;;;;;;;12.80;3.67;;;;;;;8.69;100.00;100511.47;6073111;23;20425;-82
2021/01/19 11:10:58;;;;;;;15.10;2.22;;;;;;;8.69;100.00;100517.59;6095848;23;20011;-83
2021/01/19 11:13:23;;;;;;;9.80;2.85;;;;;;;8.72;100.00;100522.72;6097658;23;20058;-83
2021/01/19 11:15:49;;;;;;;12.73;3.25;;;;;;;8.79;100.00;100511.00;6074172;23;20159;-82
2021/01/19 11:18:14;;;;;;;11.23;1.77;;;;;;;8.85;100.00;100523.06;6099701;23;20083;-84
2021/01/19 11:20:41;;;;;;;8.95;1.80;;;;;;;8.92;100.00;100545.59;6098659;23;20010;-82
2021/01/19 11:23:06;;;;;;;11.90;2.13;;;;;;;8.90;100.00;100512.34;6093295;23;20093;-82
2021/01/19 11:25:31;;;;;;;9.15;2.30;;;;;;;8.92;100.00;100532.41;6083187;23;20006;-83
2021/01/19 11:27:56;;;;;;;12.70;1.90;;;;;;;8.94;100.00;100516.56;6098746;23;20011;-81
2021/01/19 11:30:22;;;;;;;10.63;2.72;;;;;;;8.93;100.00;100543.81;6100296;23;20478;-82
2021/01/19 11:32:48;;;;;;;4.40;1.88;;;;;;;8.96;100.00;100535.78;6207956;23;20012;-82
2021/01/19 11:35:14;;;;;;;22.13;2.95;;;;;;;8.95;100.00;100531.44;6216000;23;20004;-83
2021/01/19 11:37:39;;;;;;;12.35;2.75;;;;;;;8.95;100.00;100544.63;6217747;23;20008;-83
2021/01/19 11:40:05;;;;;;;11.70;2.53;;;;;;;8.94;100.00;100533.22;6215481;23;20000;-82
2021/01/19 11:42:33;;;;;;;11.90;2.20;;;;;;;8.93;100.00;100542.03;6220397;23;20073;-83
2021/01/19 12:59:34;;;;;;;9.80;1.80;;;;;;;9.57;100.00;100548.94;6218546;23;20075;-88
2021/01/19 13:08:28;;;;;;;17.35;1.80;;;;;;;9.50;100.00;100513.19;6232007;22;20044;-87
2021/01/19 13:10:53;;;;;;;11.88;2.70;;;;;;;9.57;100.00;100546.28;6221775;23;20012;-88
2021/01/19 13:13:19;;;;;;;11.60;2.72;;;;;;;9.53;100.00;100507.78;6221163;23;20027;-88
2021/01/19 13:15:45;;;;;;;16.55;2.97;;;;;;;9.54;100.00;100517.44;6221002;23;20008;-88
2021/01/19 13:18:10;;;;;;;13.77;2.38;;;;;;;9.51;100.00;100518.41;6218815;23;20154;-87
2021/01/19 13:20:37;;;;;;;10.10;1.92;;;;;;;9.52;100.00;100516.63;6218207;23;20031;-87
2021/01/19 13:23:03;;;;;;;9.02;2.08;;;;;;;9.48;100.00;100542.28;6245556;23;20065;-86
2021/01/19 13:25:28;;;;;;;12.18;2.83;;;;;;;9.42;100.00;100520.59;6221104;23;20000;-87
2021/01/19 13:27:54;;;;;;;9.25;2.20;;;;;;;9.46;100.00;100519.53;6243026;23;20023;-85
2021/01/19 13:30:20;;;;;;;8.80;2.28;;;;;;;9.37;100.00;100507.59;6216857;23;20087;-87
2021/01/19 13:32:45;;;;;;;8.25;1.30;;;;;;;9.39;100.00;100521.59;6215936;23;20701;-87
2021/01/19 13:35:11;;;;;;;12.10;1.63;;;;;;;9.36;100.00;100519.09;6217983;23;20060;-85
2021/01/19 13:37:36;;;;;;;12.15;1.63;;;;;;;9.37;100.00;100518.16;6219522;23;20003;-88
2021/01/19 13:46:57;;;;;;;6.45;1.45;;;;;;;9.57;100.00;100548.94;6243082;23;20109;-89
2021/01/19 14:14:36;;;;;;;5.75;1.00;;;;;;;9.21;100.00;100525.91;6238498;22;20385;-86
2021/01/19 14:17:02;;;;;;;4.57;1.05;;;;;;;9.27;100.00;100536.16;6220156;23;20008;-86
2021/01/19 14:19:27;;;;;;;8.57;1.35;;;;;;;9.22;100.00;100519.69;6247283;23;20004;-86
2021/01/19 14:21:54;;;;;;;5.05;1.38;;;;;;;9.21;100.00;100541.72;6219379;23;20046;-84
2021/01/19 14:24:20;;;;;;;4.60;1.02;;;;;;;9.22;100.00;100519.69;6219527;23;20008;-86
2021/01/19 14:26:45;;;;;;;3.67;1.02;;;;;;;9.21;100.00;100517.13;6219408;23;20000;-86
2021/01/19 14:29:10;;;;;;;4.97;1.40;;;;;;;9.24;100.00;100549.50;6220124;23;20094;-87
2021/01/19 14:31:41;;;;;;;2.53;1.02;;;;;;;9.29;100.00;100523.78;6246880;23;20095;-87
2021/01/19 14:34:07;;;;;;;12.15;1.45;;;;;;;9.28;100.00;100527.31;6218493;23;20027;-86
2021/01/19 14:36:33;;;;;;;3.70;1.17;;;;;;;9.34;100.00;100531.50;6246353;23;20011;-87
2021/01/19 14:38:58;;;;;;;2.35;1.08;;;;;;;9.31;100.00;100545.66;6246377;23;20000;-87
2021/01/19 14:41:24;;;;;;;7.53;2.45;;;;;;;9.32;100.00;100528.91;6246097;23;20004;-87
2021/01/19 14:43:50;;;;;;;9.10;2.25;;;;;;;9.28;100.00;100545.78;6218912;23;20008;-86